Time;durP1;ratioP1;P1;durP2;ratioP2;P2;SDS_P1;SDS_P2;PMS_P1;PMS_P2;Temp;Humidity;BMP_temperature;BMP_pressure;BME280_temperature;BME280_humidity;BME280_pressure;Samples;Min_cycle;Max_cycle;Signal;HPM_P1;HPM_P2
2021/01/13 00:00:41;;;;;;;5.20;4.70;;;;;;;2.81;96.23;95370.22;5031511;28;20269;-82
2021/01/13 00:03:07;;;;;;;4.70;4.30;;;;;;;2.77;95.40;95374.78;5030601;28;20841;-83
2021/01/13 00:05:33;;;;;;;4.93;4.53;;;;;;;2.79;94.50;95380.53;5030510;28;20252;-82
2021/01/13 00:07:59;;;;;;;4.70;4.30;;;;;;;2.75;94.35;95369.81;5031806;28;20248;-83
2021/01/13 00:10:25;;;;;;;4.63;4.23;;;;;;;2.77;93.80;95380.66;5031160;28;20194;-82
2021/01/13 00:12:51;;;;;;;4.70;4.30;;;;;;;2.78;93.45;95378.91;5031459;28;20209;-82
2021/01/13 00:15:17;;;;;;;5.43;4.30;;;;;;;2.77;92.76;95370.50;5031315;28;20202;-83
2021/01/13 00:17:47;;;;;;;5.63;4.73;;;;;;;2.78;92.81;95386.56;5031449;28;20229;-81
2021/01/13 00:20:13;;;;;;;5.30;4.80;;;;;;;2.72;92.48;95390.41;5030917;28;20237;-83
2021/01/13 00:22:40;;;;;;;4.20;3.90;;;;;;;2.76;92.07;95383.34;5031162;28;20190;-83
2021/01/13 00:25:07;;;;;;;5.63;5.03;;;;;;;2.68;91.71;95388.31;5031052;28;20194;-83
2021/01/13 00:27:33;;;;;;;4.90;4.50;;;;;;;2.68;91.30;95373.06;5030195;28;20222;-81
2021/01/13 00:29:59;;;;;;;5.30;4.80;;;;;;;2.66;91.87;95370.63;5031301;28;20221;-81
2021/01/13 00:32:25;;;;;;;6.20;5.60;;;;;;;2.62;91.88;95382.00;5030871;28;20202;-81
2021/01/13 00:34:51;;;;;;;6.10;4.97;;;;;;;2.63;91.99;95386.16;5031198;28;20600;-82
2021/01/13 00:37:17;;;;;;;5.37;4.87;;;;;;;2.64;91.28;95385.22;5035047;28;20260;-83
2021/01/13 00:39:43;;;;;;;5.70;5.20;;;;;;;2.65;90.82;95394.44;5033983;28;20229;-83
2021/01/13 00:42:10;;;;;;;6.63;5.33;;;;;;;2.62;90.89;95393.91;5035109;28;20209;-83
2021/01/13 00:44:36;;;;;;;6.03;5.43;;;;;;;2.60;91.65;95393.22;5034118;28;20198;-83
2021/01/13 00:47:02;;;;;;;5.77;5.23;;;;;;;2.62;91.26;95406.59;5034691;28;20218;-83
2021/01/13 00:49:28;;;;;;;6.43;5.80;;;;;;;2.66;91.32;95418.94;5034886;28;20197;-83
2021/01/13 00:51:54;;;;;;;5.77;5.20;;;;;;;2.71;91.65;95426.13;5034018;28;20190;-82
2021/01/13 00:54:20;;;;;;;5.80;5.23;;;;;;;2.72;90.55;95420.13;5035111;28;20202;-83
2021/01/13 00:56:48;;;;;;;6.90;6.20;;;;;;;2.70;90.41;95421.97;5033619;28;20623;-83
2021/01/13 00:59:15;;;;;;;5.90;5.30;;;;;;;2.66;90.44;95421.47;5033727;28;20590;-83
2021/01/13 01:01:43;;;;;;;6.53;5.47;;;;;;;2.70;90.47;95419.44;5033543;28;20551;-83
2021/01/13 01:04:11;;;;;;;7.53;5.90;;;;;;;2.64;89.96;95428.41;5032996;28;20229;-83
2021/01/13 01:06:38;;;;;;;6.23;5.63;;;;;;;2.64;89.64;95427.63;5034297;28;20210;-83
2021/01/13 01:09:05;;;;;;;6.37;5.77;;;;;;;2.46;89.36;95426.66;5033679;28;20659;-84
2021/01/13 01:11:34;;;;;;;6.17;5.60;;;;;;;2.53;89.95;95432.78;5033775;28;20221;-82
2021/01/13 01:14:00;;;;;;;6.70;6.00;;;;;;;2.53;89.68;95435.34;5034140;28;20229;-83
2021/01/13 01:16:30;;;;;;;6.70;6.00;;;;;;;2.61;89.50;95440.59;5034068;28;20229;-83
2021/01/13 01:18:56;;;;;;;6.63;6.03;;;;;;;2.63;89.37;95431.91;5034014;28;20214;-84
2021/01/13 01:21:22;;;;;;;7.07;5.40;;;;;;;2.61;88.82;95441.38;5033101;28;20271;-83
2021/01/13 01:23:48;;;;;;;5.90;5.40;;;;;;;2.56;88.05;95440.97;5032764;28;20221;-83
2021/01/13 01:26:14;;;;;;;5.80;5.30;;;;;;;2.55;87.81;95439.34;5033840;28;20194;-83
2021/01/13 01:28:40;;;;;;;6.37;5.70;;;;;;;2.55;88.14;95436.00;5034838;28;20221;-83
2021/01/13 01:31:05;;;;;;;6.17;5.57;;;;;;;2.53;88.33;95435.34;5033790;28;20210;-83
2021/01/13 01:33:32;;;;;;;6.57;5.53;;;;;;;2.57;88.18;95436.69;5034594;28;20201;-83
2021/01/13 01:35:58;;;;;;;5.50;5.00;;;;;;;2.59;87.67;95439.91;5034090;28;20240;-84
2021/01/13 01:38:24;;;;;;;6.67;5.80;;;;;;;2.59;88.10;95438.16;5033920;28;20221;-84
2021/01/13 01:40:50;;;;;;;5.50;4.97;;;;;;;2.57;87.89;95441.78;5034970;28;20202;-83
2021/01/13 01:43:16;;;;;;;6.10;5.50;;;;;;;2.54;87.30;95447.09;5034877;28;20198;-84
2021/01/13 01:45:42;;;;;;;6.67;5.70;;;;;;;2.51;87.31;95450.72;5033792;28;20198;-83
2021/01/13 01:48:26;;;;;;;6.50;5.40;;;;;;;2.51;87.80;95449.91;5033288;28;20590;-83
2021/01/13 01:50:58;;;;;;;6.47;5.20;;;;;;;2.49;87.13;95450.06;5033739;28;20207;-83
2021/01/13 01:53:32;;;;;;;5.80;5.03;;;;;;;2.43;86.71;95451.38;5034363;28;20216;-83
2021/01/13 01:56:14;;;;;;;5.70;5.17;;;;;;;2.40;86.93;95441.47;5019820;28;20233;-83
2021/01/13 01:58:46;;;;;;;6.23;4.90;;;;;;;2.33;87.48;95442.91;5033598;28;20245;-83
2021/01/13 02:01:13;;;;;;;6.37;5.07;;;;;;;2.26;86.96;95454.53;5033912;28;20194;-84
2021/01/13 02:03:44;;;;;;;6.37;5.20;;;;;;;2.26;87.47;95468.97;5033867;28;20194;-84
2021/01/13 02:06:14;;;;;;;6.97;5.37;;;;;;;2.29;87.80;95458.56;5034154;28;20205;-84
2021/01/13 02:08:41;;;;;;;7.97;5.57;;;;;;;2.23;86.53;95464.94;5034256;28;20226;-82
2021/01/13 02:11:14;;;;;;;5.03;4.53;;;;;;;2.27;86.43;95473.94;5033505;28;20573;-83
2021/01/13 02:13:41;;;;;;;5.17;4.43;;;;;;;2.18;86.26;95474.69;5034161;28;20912;-83
2021/01/13 02:16:07;;;;;;;5.87;5.07;;;;;;;2.19;87.57;95478.84;5034117;28;20190;-83
2021/01/13 02:18:36;;;;;;;5.83;4.60;;;;;;;2.20;86.36;95477.09;5034227;28;20783;-83
2021/01/13 02:21:04;;;;;;;5.53;4.97;;;;;;;2.16;86.32;95475.75;5034282;28;20194;-83
2021/01/13 02:23:33;;;;;;;5.57;4.47;;;;;;;2.15;86.38;95471.59;5034515;28;20194;-83
2021/01/13 02:26:44;;;;;;;5.47;4.27;;;;;;;2.16;86.35;95478.28;5034640;28;20201;-82
2021/01/13 02:29:23;;;;;;;4.93;4.37;;;;;;;2.16;85.86;95478.28;5034524;28;20240;-83
2021/01/13 02:32:11;;;;;;;5.23;4.50;;;;;;;2.17;85.73;95477.34;5035069;28;20198;-84
2021/01/13 02:34:52;;;;;;;5.30;4.53;;;;;;;2.18;85.70;95473.88;5036136;28;20206;-83
2021/01/13 02:37:40;;;;;;;5.07;4.20;;;;;;;2.14;84.63;95472.53;5035880;28;20221;-83
2021/01/13 02:40:09;;;;;;;5.30;4.70;;;;;;;2.16;85.62;95474.00;5017839;28;20237;-83
2021/01/13 02:42:38;;;;;;;7.70;4.43;;;;;;;2.14;85.22;95483.47;5028371;28;20194;-83
2021/01/13 02:45:11;;;;;;;7.60;4.33;;;;;;;2.07;85.17;95488.28;5035960;28;20198;-82
2021/01/13 02:48:01;;;;;;;8.07;4.57;;;;;;;2.06;85.67;95484.13;5036617;28;20218;-83
2021/01/13 02:50:29;;;;;;;14.57;12.00;;;;;;;2.10;86.04;95478.81;5036785;28;20221;-84
2021/01/13 02:53:27;;;;;;;21.70;15.23;;;;;;;2.07;86.28;95484.94;5036518;28;20198;-83
2021/01/13 02:56:07;;;;;;;7.77;5.60;;;;;;;2.02;84.92;95485.31;5035944;28;20206;-84
2021/01/13 02:58:35;;;;;;;5.57;4.27;;;;;;;2.02;84.86;95492.94;5035644;28;20214;-84
2021/01/13 03:01:05;;;;;;;7.33;5.07;;;;;;;1.97;86.31;95489.16;5036653;28;20195;-84
2021/01/13 03:03:32;;;;;;;5.63;4.47;;;;;;;1.92;85.16;95489.56;5035442;28;20624;-83
2021/01/13 03:06:03;;;;;;;6.43;4.20;;;;;;;1.93;84.96;95483.53;5035330;28;20198;-84
2021/01/13 03:08:43;;;;;;;5.47;4.70;;;;;;;1.97;85.56;95489.16;5035413;28;20194;-84
2021/01/13 03:11:13;;;;;;;5.27;4.37;;;;;;;1.92;84.93;95483.66;5034627;28;20209;-83
2021/01/13 03:13:44;;;;;;;7.67;4.60;;;;;;;1.97;85.27;95492.50;5035270;28;20232;-84
2021/01/13 03:16:12;;;;;;;6.03;4.80;;;;;;;2.02;85.33;95494.66;5034729;28;20849;-83
2021/01/13 03:18:50;;;;;;;7.40;4.67;;;;;;;1.98;84.92;95500.91;5035726;28;20699;-84
2021/01/13 03:21:20;;;;;;;6.97;4.70;;;;;;;1.92;84.87;95502.25;5035001;28;20198;-83
2021/01/13 03:23:54;;;;;;;7.43;4.87;;;;;;;1.92;84.45;95491.28;5035088;28;20198;-83
2021/01/13 03:26:27;;;;;;;5.63;4.50;;;;;;;1.94;84.92;95489.41;5035365;28;20278;-84
2021/01/13 03:28:55;;;;;;;6.87;4.93;;;;;;;1.87;85.31;95488.31;5035747;28;20194;-84
2021/01/13 03:31:26;;;;;;;9.33;4.80;;;;;;;1.83;85.00;95494.56;5035976;28;20202;-84
2021/01/13 03:34:18;;;;;;;7.47;5.47;;;;;;;1.84;85.04;95491.91;5035768;28;20596;-84
2021/01/13 03:36:56;;;;;;;6.80;4.70;;;;;;;1.87;85.09;95484.03;5034190;28;20214;-83
2021/01/13 03:39:23;;;;;;;5.70;4.47;;;;;;;1.82;84.55;95495.50;5035270;28;20275;-83
2021/01/13 03:42:07;;;;;;;8.50;5.20;;;;;;;1.87;85.51;95488.31;5034273;28;20221;-84
2021/01/13 03:44:35;;;;;;;9.03;4.80;;;;;;;1.77;85.42;95495.06;5034356;28;20197;-83
2021/01/13 03:47:33;;;;;;;7.23;5.10;;;;;;;1.79;85.58;95494.00;5036244;28;20295;-84
2021/01/13 03:50:11;;;;;;;5.20;4.53;;;;;;;1.73;85.20;95487.69;5034460;28;20828;-84
2021/01/13 03:52:40;;;;;;;6.53;4.83;;;;;;;1.77;85.10;95489.97;5035428;28;20194;-84
2021/01/13 03:55:07;;;;;;;5.73;4.80;;;;;;;1.76;84.65;95493.44;5035470;28;20194;-85
2021/01/13 03:58:02;;;;;;;5.87;5.27;;;;;;;1.76;84.93;95491.72;5034955;28;20221;-84
2021/01/13 04:00:29;;;;;;;6.77;4.93;;;;;;;1.80;84.89;95493.06;5035395;28;20214;-83
2021/01/13 04:03:12;;;;;;;6.20;4.83;;;;;;;1.75;84.82;95495.19;5034404;28;20205;-84
2021/01/13 04:05:42;;;;;;;4.97;4.47;;;;;;;1.78;84.52;95499.19;5035098;28;20198;-84
2021/01/13 04:08:10;;;;;;;8.03;5.00;;;;;;;1.79;84.71;95498.28;5035190;28;20300;-83
2021/01/13 04:10:37;;;;;;;7.43;5.07;;;;;;;1.81;85.38;95501.50;5036452;28;20202;-83
2021/01/13 04:13:16;;;;;;;6.37;5.10;;;;;;;1.84;84.82;95513.94;5038328;28;20202;-84
2021/01/13 04:15:42;;;;;;;6.23;5.20;;;;;;;1.84;84.68;95508.88;5038967;28;20198;-84
2021/01/13 04:18:11;;;;;;;7.93;5.50;;;;;;;1.84;84.79;95509.66;5038755;28;20224;-84
2021/01/13 04:20:37;;;;;;;9.10;5.60;;;;;;;1.79;84.56;95513.50;5038650;28;20198;-84
2021/01/13 04:23:06;;;;;;;8.20;5.50;;;;;;;1.86;84.94;95510.34;5038503;28;20198;-84
2021/01/13 04:25:33;;;;;;;7.23;5.40;;;;;;;1.90;84.45;95510.91;5038209;28;20206;-83
2021/01/13 04:28:00;;;;;;;6.93;5.40;;;;;;;1.86;84.70;95507.81;5037421;28;20834;-81
2021/01/13 04:30:27;;;;;;;7.20;5.07;;;;;;;1.86;84.48;95507.00;5037222;28;20209;-82
2021/01/13 04:32:54;;;;;;;7.60;5.57;;;;;;;1.89;84.62;95515.19;5037962;28;20209;-84
2021/01/13 04:35:23;;;;;;;9.17;5.60;;;;;;;1.87;85.08;95511.97;5037504;28;20217;-84
2021/01/13 04:37:52;;;;;;;8.83;5.73;;;;;;;1.88;84.70;95520.38;5036354;28;20279;-84
2021/01/13 04:40:30;;;;;;;7.70;5.60;;;;;;;1.87;84.54;95519.59;5036670;28;20564;-84
2021/01/13 04:43:01;;;;;;;8.57;5.57;;;;;;;1.87;85.26;95516.25;5036889;28;20205;-83
2021/01/13 04:45:36;;;;;;;7.13;5.80;;;;;;;1.86;84.59;95520.50;5037313;28;20198;-84
2021/01/13 04:48:04;;;;;;;8.60;5.77;;;;;;;1.88;84.50;95521.19;5037054;28;20795;-84
2021/01/13 04:50:34;;;;;;;6.97;5.77;;;;;;;1.88;85.16;95531.34;5037908;28;20202;-84
2021/01/13 04:53:06;;;;;;;8.03;6.00;;;;;;;1.90;84.45;95536.31;5037587;28;20256;-84
2021/01/13 04:55:43;;;;;;;7.10;6.00;;;;;;;1.94;83.92;95535.09;5036776;28;20202;-84
2021/01/13 04:58:40;;;;;;;8.73;5.80;;;;;;;1.85;83.47;95533.31;5038084;28;20320;-84
2021/01/13 05:01:33;;;;;;;8.20;6.10;;;;;;;1.86;84.86;95534.94;5037405;28;20216;-84
2021/01/13 05:04:01;;;;;;;9.87;5.50;;;;;;;1.84;84.21;95541.88;5036254;28;20256;-83
2021/01/13 05:06:47;;;;;;;7.70;6.00;;;;;;;1.87;83.42;95549.22;5036804;28;20215;-84
2021/01/13 05:09:15;;;;;;;10.77;5.97;;;;;;;1.85;83.54;95546.81;5036331;28;20226;-84
2021/01/13 05:11:42;;;;;;;8.40;5.73;;;;;;;1.72;83.85;95552.09;5036025;28;20198;-82
2021/01/13 05:14:09;;;;;;;7.90;5.83;;;;;;;1.76;84.01;95562.78;5035976;28;20206;-84
2021/01/13 05:16:54;;;;;;;9.47;6.17;;;;;;;1.74;84.56;95567.16;5036163;28;20218;-84
2021/01/13 05:19:46;;;;;;;9.90;6.63;;;;;;;1.78;84.52;95573.59;5035928;28;20292;-84
2021/01/13 05:22:16;;;;;;;9.67;5.90;;;;;;;1.79;84.20;95570.16;5034403;28;20221;-84
2021/01/13 05:24:42;;;;;;;8.73;6.53;;;;;;;1.81;84.20;95568.28;5033810;28;20198;-85
2021/01/13 05:27:36;;;;;;;8.77;6.03;;;;;;;1.76;84.58;95578.00;5032312;28;20226;-82
2021/01/13 05:30:09;;;;;;;10.50;6.67;;;;;;;1.73;83.94;95575.72;5016711;28;20207;-83
2021/01/13 05:32:40;;;;;;;9.33;6.33;;;;;;;1.77;84.01;95578.81;5019119;28;20585;-82
2021/01/13 05:35:08;;;;;;;11.53;6.60;;;;;;;1.74;84.24;95584.94;5031454;28;20275;-83
2021/01/13 05:37:48;;;;;;;9.20;5.90;;;;;;;1.81;83.68;95592.88;5033588;28;20248;-82
2021/01/13 05:40:15;;;;;;;7.30;5.90;;;;;;;1.86;83.37;95596.66;5030443;28;20213;-83
2021/01/13 05:42:41;;;;;;;8.17;6.30;;;;;;;1.88;83.67;95602.41;5033252;28;20666;-82
2021/01/13 05:45:09;;;;;;;9.50;5.83;;;;;;;1.92;83.95;95596.19;5033790;28;20202;-82
2021/01/13 05:48:01;;;;;;;9.33;6.33;;;;;;;1.92;83.71;95593.63;5034734;28;20226;-82
2021/01/13 05:50:28;;;;;;;9.33;6.33;;;;;;;1.94;83.58;95598.56;5031363;28;20202;-81
2021/01/13 05:52:56;;;;;;;9.03;5.93;;;;;;;1.91;83.10;95607.25;5035264;28;20202;-83
2021/01/13 05:55:23;;;;;;;9.63;6.27;;;;;;;1.87;82.90;95610.97;5034381;28;20213;-84
2021/01/13 05:57:54;;;;;;;8.93;6.57;;;;;;;1.88;83.45;95614.31;5035211;28;20221;-84
2021/01/13 06:00:21;;;;;;;11.63;7.13;;;;;;;1.91;83.26;95619.16;5036588;28;20248;-83
2021/01/13 06:02:48;;;;;;;9.77;7.07;;;;;;;1.86;82.92;95618.69;5034574;28;20202;-83
2021/01/13 06:05:15;;;;;;;12.63;6.97;;;;;;;1.78;83.05;95613.41;5034428;28;20207;-84
2021/01/13 06:07:41;;;;;;;8.30;6.40;;;;;;;1.81;83.18;95621.59;5034784;28;20222;-83
2021/01/13 06:10:11;;;;;;;7.63;6.60;;;;;;;1.80;82.18;95621.72;5034365;28;20202;-83
2021/01/13 06:12:45;;;;;;;11.63;6.93;;;;;;;1.86;82.69;95626.31;5035438;28;20252;-83
2021/01/13 06:15:13;;;;;;;10.43;6.20;;;;;;;1.91;82.90;95626.75;5034368;28;20229;-83
2021/01/13 06:17:48;;;;;;;9.60;6.70;;;;;;;1.94;82.33;95629.84;5035497;28;20245;-83
2021/01/13 06:20:18;;;;;;;9.33;6.43;;;;;;;1.96;82.73;95633.06;5033541;28;20213;-83
2021/01/13 06:22:49;;;;;;;9.53;6.63;;;;;;;1.96;81.97;95627.19;5034523;28;20718;-84
2021/01/13 06:25:24;;;;;;;8.40;6.93;;;;;;;1.90;81.90;95628.50;5034380;28;20213;-83
2021/01/13 06:28:06;;;;;;;10.10;6.87;;;;;;;1.89;81.51;95634.50;5014857;28;20606;-83
2021/01/13 06:30:33;;;;;;;8.70;7.10;;;;;;;1.93;82.12;95632.50;5014416;28;20209;-84
2021/01/13 06:33:04;;;;;;;11.13;6.80;;;;;;;1.88;81.73;95632.06;5014746;28;20207;-83
2021/01/13 06:36:18;;;;;;;10.50;7.07;;;;;;;1.89;82.53;95629.41;5024841;28;20271;-83
2021/01/13 06:38:53;;;;;;;11.00;7.43;;;;;;;1.92;82.52;95634.25;5033223;28;20311;-83
2021/01/13 06:41:20;;;;;;;10.90;7.20;;;;;;;1.91;82.12;95639.44;5033720;28;20197;-83
2021/01/13 06:43:57;;;;;;;12.60;7.30;;;;;;;1.93;81.67;95640.91;5033838;28;20210;-83
2021/01/13 06:46:23;;;;;;;12.67;6.47;;;;;;;1.91;85.04;95636.91;5034633;28;20245;-84
2021/01/13 06:48:49;;;;;;;12.13;7.47;;;;;;;1.93;83.64;95640.91;5033954;28;20198;-84
2021/01/13 06:51:16;;;;;;;13.17;8.37;;;;;;;1.86;81.95;95637.28;5032787;28;20271;-83
2021/01/13 06:53:45;;;;;;;11.97;7.83;;;;;;;1.86;82.50;95633.94;5034716;28;20202;-81
2021/01/13 06:56:13;;;;;;;14.17;8.53;;;;;;;1.88;82.69;95637.97;5033165;28;20213;-83
2021/01/13 06:58:40;;;;;;;11.07;7.63;;;;;;;1.90;82.15;95640.38;5032815;28;20280;-81
2021/01/13 07:01:06;;;;;;;12.53;7.53;;;;;;;1.96;81.84;95648.28;5033478;28;20206;-83
2021/01/13 07:03:32;;;;;;;11.57;6.63;;;;;;;1.94;81.31;95649.34;5031931;28;20206;-83
2021/01/13 07:06:01;;;;;;;8.27;6.77;;;;;;;1.92;81.57;95653.75;5027593;28;20213;-81
2021/01/13 07:08:28;;;;;;;11.33;7.30;;;;;;;1.90;81.16;95648.81;5025777;28;20219;-83
2021/01/13 07:11:03;;;;;;;12.90;6.97;;;;;;;1.91;81.19;95647.06;5031012;28;20205;-82
2021/01/13 07:13:31;;;;;;;10.47;6.70;;;;;;;1.93;81.57;95645.19;5033605;28;20196;-83
2021/01/13 07:16:00;;;;;;;10.60;7.20;;;;;;;1.90;80.91;95642.91;5033066;28;20198;-83
2021/01/13 07:18:27;;;;;;;11.07;6.30;;;;;;;1.95;80.98;95646.69;5015555;28;20280;-83
2021/01/13 07:20:53;;;;;;;12.43;6.83;;;;;;;1.99;80.92;95650.59;5021423;28;20206;-85
2021/01/13 07:23:20;;;;;;;13.67;7.07;;;;;;;2.03;80.57;95651.16;5016440;28;20751;-82
2021/01/13 07:25:50;;;;;;;11.03;6.73;;;;;;;2.03;80.36;95646.88;5029852;28;20260;-82
2021/01/13 07:28:17;;;;;;;11.10;6.63;;;;;;;1.96;80.20;95647.47;5031664;28;20555;-82
2021/01/13 07:30:44;;;;;;;11.30;6.97;;;;;;;1.89;80.84;95646.38;5030819;28;20194;-82
2021/01/13 07:33:12;;;;;;;10.37;6.47;;;;;;;1.92;81.04;95653.75;5032273;28;20202;-85
2021/01/13 07:35:45;;;;;;;10.70;6.60;;;;;;;2.02;81.07;95654.63;5030188;28;20202;-81
2021/01/13 07:38:17;;;;;;;10.00;6.97;;;;;;;2.02;80.15;95650.34;5021264;28;20254;-80
2021/01/13 07:40:57;;;;;;;12.80;7.87;;;;;;;1.99;80.54;95654.88;5033003;28;20198;-82
2021/01/13 07:43:55;;;;;;;11.20;7.43;;;;;;;2.00;80.90;95644.59;5031129;28;20204;-83
2021/01/13 07:46:26;;;;;;;10.83;7.30;;;;;;;2.05;81.29;95652.66;5030187;28;20823;-82
2021/01/13 07:49:17;;;;;;;13.03;7.13;;;;;;;2.08;81.33;95644.00;5027351;28;20191;-83
2021/01/13 07:51:49;;;;;;;12.30;8.10;;;;;;;2.12;81.26;95647.09;5036301;28;20268;-84
2021/01/13 07:54:27;;;;;;;13.80;7.90;;;;;;;2.15;80.18;95654.44;5035229;28;20217;-82
2021/01/13 07:56:56;;;;;;;11.20;7.40;;;;;;;2.09;80.54;95648.13;5027724;28;20673;-84
2021/01/13 07:59:39;;;;;;;11.73;7.90;;;;;;;2.16;80.62;95654.31;5035317;28;20221;-83
2021/01/13 08:02:40;;;;;;;11.93;7.80;;;;;;;2.23;80.67;95652.09;5033644;28;20194;-84
2021/01/13 08:05:52;;;;;;;9.63;7.20;;;;;;;2.20;80.60;95649.81;5033812;28;20893;-84
2021/01/13 08:08:23;;;;;;;11.47;7.80;;;;;;;2.22;80.32;95651.28;5031157;28;20221;-83
2021/01/13 08:10:51;;;;;;;11.53;7.83;;;;;;;2.25;80.17;95650.25;5033930;28;20195;-83
2021/01/13 08:13:39;;;;;;;10.87;7.33;;;;;;;2.36;79.45;95642.53;5034224;28;20198;-84
2021/01/13 08:16:45;;;;;;;10.20;7.30;;;;;;;2.56;79.00;95651.09;5031664;28;20191;-82
2021/01/13 08:19:52;;;;;;;20.43;13.40;;;;;;;2.77;77.36;95660.28;5034445;28;20213;-83
2021/01/13 08:22:24;;;;;;;9.73;7.30;;;;;;;2.95;77.11;95663.03;5023440;28;20572;-84
2021/01/13 08:24:59;;;;;;;9.83;7.10;;;;;;;3.16;77.10;95662.19;5034494;28;20201;-83
2021/01/13 08:27:27;;;;;;;9.60;7.03;;;;;;;3.40;76.45;95655.84;5034825;28;20221;-82
2021/01/13 08:29:56;;;;;;;8.23;7.03;;;;;;;3.57;74.68;95651.84;5034424;28;20182;-82
2021/01/13 08:32:30;;;;;;;8.40;6.23;;;;;;;3.76;73.51;95661.25;5032139;28;20225;-81
2021/01/13 08:35:04;;;;;;;8.70;6.57;;;;;;;3.91;72.77;95670.09;5034412;28;20244;-82
2021/01/13 08:37:33;;;;;;;7.40;6.63;;;;;;;3.99;71.46;95669.44;5032608;28;20225;-82
2021/01/13 08:39:59;;;;;;;8.27;6.53;;;;;;;3.91;71.80;95675.19;5029016;28;20256;-82
2021/01/13 08:42:29;;;;;;;9.40;6.43;;;;;;;3.90;72.12;95678.66;5035003;28;20209;-83
2021/01/13 08:44:56;;;;;;;10.23;6.73;;;;;;;3.76;72.49;95679.06;5034625;28;20190;-82
2021/01/13 08:47:23;;;;;;;13.87;9.23;;;;;;;3.74;73.19;95683.47;5031792;28;20296;-83
2021/01/13 08:49:49;;;;;;;9.27;7.27;;;;;;;3.46;72.87;95680.72;5032895;28;20198;-83
2021/01/13 08:52:18;;;;;;;9.60;7.20;;;;;;;3.44;73.36;95694.56;5033761;28;20252;-83
2021/01/13 08:55:06;;;;;;;7.83;6.63;;;;;;;3.30;75.47;95694.88;5033030;28;20201;-84
2021/01/13 08:57:51;;;;;;;8.37;5.33;;;;;;;3.84;88.38;95688.59;5032334;28;20229;-83
2021/01/13 09:00:18;;;;;;;9.17;6.10;;;;;;;4.27;80.21;95694.09;5030467;28;20191;-84
2021/01/13 09:02:58;;;;;;;7.60;5.93;;;;;;;4.25;72.02;95688.31;5031357;28;20669;-82
2021/01/13 09:05:28;;;;;;;6.03;5.20;;;;;;;4.26;71.58;95689.13;5034275;28;20283;-83
2021/01/13 09:07:56;;;;;;;6.87;5.30;;;;;;;4.20;70.33;95690.50;5029458;28;20214;-82
2021/01/13 09:10:24;;;;;;;7.83;5.17;;;;;;;4.22;69.99;95691.16;5033853;28;20271;-82
2021/01/13 09:12:50;;;;;;;8.80;5.33;;;;;;;4.26;69.74;95691.66;5033471;28;20202;-82
2021/01/13 09:15:27;;;;;;;7.93;5.00;;;;;;;4.31;69.92;95702.28;5033977;28;20220;-84
2021/01/13 09:17:55;;;;;;;5.67;5.07;;;;;;;4.36;68.36;95695.84;5033093;28;20249;-81
2021/01/13 09:20:27;;;;;;;5.30;4.57;;;;;;;4.40;67.82;95707.38;5034315;28;20225;-82
2021/01/13 09:22:56;;;;;;;6.50;4.33;;;;;;;4.27;67.89;95711.13;5034677;28;20207;-83
2021/01/13 09:25:25;;;;;;;7.00;4.60;;;;;;;4.16;68.75;95709.53;5034365;28;20225;-83
2021/01/13 09:27:53;;;;;;;5.67;4.83;;;;;;;3.91;68.37;95708.28;5034463;28;20222;-84
2021/01/13 09:30:37;;;;;;;5.07;4.33;;;;;;;3.64;69.20;95716.56;5036330;28;20190;-84
2021/01/13 09:33:09;;;;;;;5.93;4.50;;;;;;;3.45;70.64;95716.53;5033638;28;20198;-83
2021/01/13 09:35:38;;;;;;;7.00;4.83;;;;;;;3.39;70.85;95722.94;5033248;28;20659;-82
2021/01/13 09:38:08;;;;;;;6.60;4.40;;;;;;;3.36;70.92;95723.19;5028761;28;20222;-83
2021/01/13 09:40:52;;;;;;;6.07;4.80;;;;;;;3.32;70.99;95721.81;5034474;28;20609;-83
2021/01/13 09:43:40;;;;;;;7.00;4.33;;;;;;;3.25;70.78;95736.00;5029825;28;20213;-82
2021/01/13 09:46:08;;;;;;;5.47;4.47;;;;;;;3.21;71.38;95724.47;5017625;28;20248;-82
2021/01/13 09:48:36;;;;;;;6.10;4.67;;;;;;;3.25;72.24;95727.56;5033825;28;20216;-83
2021/01/13 09:51:06;;;;;;;7.47;5.00;;;;;;;3.41;71.15;95732.97;5033955;28;20692;-82
2021/01/13 09:53:34;;;;;;;7.83;4.30;;;;;;;3.47;71.28;95737.53;5033240;28;20198;-81
2021/01/13 09:56:08;;;;;;;6.50;4.20;;;;;;;3.45;70.74;95735.16;5032849;28;20233;-83
2021/01/13 09:58:42;;;;;;;7.93;4.20;;;;;;;3.38;70.84;95738.31;5034188;28;20222;-83
2021/01/13 10:01:11;;;;;;;7.10;4.57;;;;;;;3.32;70.99;95732.00;5032963;28;20198;-83
2021/01/13 10:03:37;;;;;;;8.43;4.47;;;;;;;3.19;71.38;95733.97;5032704;28;20202;-83
2021/01/13 10:06:12;;;;;;;5.57;4.33;;;;;;;3.09;71.84;95739.00;5033878;28;20677;-83
2021/01/13 10:08:38;;;;;;;5.03;3.90;;;;;;;3.06;71.74;95736.72;5031182;28;20728;-82
2021/01/13 10:11:06;;;;;;;5.03;4.20;;;;;;;3.09;72.33;95738.19;5033372;28;20195;-81
2021/01/13 10:13:32;;;;;;;10.50;4.70;;;;;;;3.03;72.40;95741.25;5032880;28;20244;-83
2021/01/13 10:16:01;;;;;;;6.60;4.13;;;;;;;3.03;71.68;95734.44;5033198;28;20205;-82
2021/01/13 10:18:27;;;;;;;6.10;4.23;;;;;;;3.00;71.49;95733.88;5033095;28;20218;-84
2021/01/13 10:20:57;;;;;;;5.30;4.03;;;;;;;3.06;71.99;95731.63;5033458;28;20209;-82
2021/01/13 10:23:27;;;;;;;7.30;4.03;;;;;;;3.01;71.89;95738.84;5033254;28;20313;-84
2021/01/13 10:26:05;;;;;;;4.40;4.00;;;;;;;3.03;71.99;95733.63;5033333;28;20194;-82
2021/01/13 10:28:32;;;;;;;7.57;3.60;;;;;;;3.06;73.43;95739.28;5032635;28;20217;-82
2021/01/13 10:30:59;;;;;;;5.07;3.93;;;;;;;3.17;72.24;95735.81;5032909;28;20606;-82
2021/01/13 10:33:48;;;;;;;7.87;5.50;;;;;;;3.22;71.83;95738.00;5032174;28;20205;-83
2021/01/13 10:36:39;;;;;;;4.30;3.87;;;;;;;3.19;71.30;95735.69;5029140;28;20205;-82
2021/01/13 10:39:08;;;;;;;5.93;3.90;;;;;;;3.18;71.62;95734.91;5021906;28;20222;-84
2021/01/13 10:41:37;;;;;;;4.47;3.47;;;;;;;3.17;71.75;95720.56;5031256;28;20197;-81
2021/01/13 10:44:06;;;;;;;4.93;3.63;;;;;;;3.09;71.83;95733.09;5031379;28;20191;-84
2021/01/13 10:46:53;;;;;;;6.10;3.80;;;;;;;3.16;71.38;95728.31;5033502;28;20232;-82
2021/01/13 10:49:22;;;;;;;4.57;3.40;;;;;;;3.27;71.18;95718.84;5032516;28;20197;-84
2021/01/13 10:51:49;;;;;;;4.80;4.17;;;;;;;3.42;70.41;95720.13;5032583;28;20201;-83
2021/01/13 10:54:20;;;;;;;4.20;3.20;;;;;;;3.50;69.48;95719.47;5031556;28;20228;-82
2021/01/13 10:56:52;;;;;;;6.00;3.50;;;;;;;3.69;69.59;95711.06;5023186;28;20240;-84
2021/01/13 10:59:18;;;;;;;4.13;3.73;;;;;;;3.92;69.98;95709.09;5033009;28;20221;-85
2021/01/13 11:01:46;;;;;;;4.07;3.50;;;;;;;4.16;68.21;95712.06;5032268;28;20653;-83
2021/01/13 11:04:27;;;;;;;5.33;3.40;;;;;;;4.45;67.49;95704.41;5032508;28;20767;-84
2021/01/13 11:06:55;;;;;;;8.50;3.53;;;;;;;4.55;67.27;95709.50;5031759;28;20518;-83
2021/01/13 11:09:22;;;;;;;5.80;3.33;;;;;;;4.65;66.16;95702.63;5031639;28;20194;-83
2021/01/13 11:11:49;;;;;;;3.67;3.27;;;;;;;4.76;65.72;95698.19;5033021;28;20851;-84
2021/01/13 11:14:16;;;;;;;5.57;3.30;;;;;;;4.91;64.18;95690.09;5032614;28;20220;-83
2021/01/13 11:17:00;;;;;;;3.27;2.90;;;;;;;4.87;63.56;95684.47;5033429;28;20214;-84
2021/01/13 11:19:26;;;;;;;4.27;3.80;;;;;;;4.67;63.05;95688.00;5031839;28;20701;-83
2021/01/13 11:21:54;;;;;;;6.83;5.13;;;;;;;4.65;64.40;95684.78;5032831;28;20293;-83
2021/01/13 11:24:30;;;;;;;4.77;3.00;;;;;;;4.50;63.14;95681.84;5032691;28;20202;-84
2021/01/13 11:27:00;;;;;;;3.43;3.00;;;;;;;4.32;63.26;95686.03;5033304;28;20701;-82
2021/01/13 11:29:30;;;;;;;5.03;3.20;;;;;;;4.21;64.04;95678.56;5032928;28;20221;-81
2021/01/13 11:31:56;;;;;;;2.97;2.70;;;;;;;4.16;62.62;95676.41;5034796;28;20218;-83
2021/01/13 11:34:23;;;;;;;3.50;2.43;;;;;;;4.31;63.37;95680.13;5031798;28;20201;-84
2021/01/13 11:37:02;;;;;;;3.80;2.50;;;;;;;4.25;62.13;95678.13;5027898;28;20217;-83
2021/01/13 11:39:31;;;;;;;3.60;2.67;;;;;;;4.37;62.56;95666.88;5030243;28;20569;-82
2021/01/13 11:42:21;;;;;;;3.43;2.70;;;;;;;4.44;62.01;95669.66;5018592;28;20191;-83
2021/01/13 11:45:01;;;;;;;3.30;2.47;;;;;;;4.35;61.36;95661.09;5032149;28;20194;-84
2021/01/13 11:47:32;;;;;;;4.90;2.40;;;;;;;4.37;62.17;95666.88;5028096;28;20252;-83
2021/01/13 11:53:11;;;;;;;2.30;2.10;;;;;;;4.48;60.01;95643.75;5026098;28;20213;-83
2021/01/13 11:55:38;;;;;;;5.43;2.70;;;;;;;4.58;60.54;95641.19;5031208;28;20559;-84
2021/01/13 11:58:04;;;;;;;7.23;3.80;;;;;;;5.07;75.07;95650.28;5018278;28;20226;-80
2021/01/13 12:00:31;;;;;;;4.83;3.40;;;;;;;5.42;62.48;95643.66;5031976;28;20234;-83
2021/01/13 12:02:58;;;;;;;5.33;2.43;;;;;;;5.16;59.49;95649.44;5032281;28;20285;-82
2021/01/13 12:05:27;;;;;;;3.43;2.17;;;;;;;4.72;59.61;95635.66;5032505;28;20186;-81